Time,TemperatureF,DewpointF,PressureIn,WindDirection,WindDirectionDegrees,WindSpeedMPH,WindSpeedGustMPH,Humidity,HourlyPrecipIn,Conditions,Clouds,dailyrainin,SoftwareType,DateUTC
2013-03-31 00:01:00,58.0,56.6,30.04,SW,215,0.0,0.0,95,0.00,,,0.00,WeatherCatV1.02B3,2013-03-31 05:01:00,
2013-03-31 00:06:00,58.0,56.6,30.04,SW,215,0.0,0.0,95,0.00,,,0.00,WeatherCatV1.02B3,2013-03-31 05:06:00,
2013-03-31 00:11:00,57.9,56.5,30.04,SW,215,0.0,0.0,95,0.00,,,0.00,WeatherCatV1.02B3,2013-03-31 05:11:00,
2013-03-31 00:16:00,57.9,56.5,30.04,SW,215,0.0,1.0,95,0.00,,,0.00,WeatherCatV1.02B3,2013-03-31 05:16:00,
2013-03-31 00:21:00,57.9,56.5,30.03,SW,215,0.0,1.0,95,0.00,,,0.00,WeatherCatV1.02B3,2013-03-31 05:21:00,
2013-03-31 00:26:00,57.9,56.5,30.03,NNE,16,0.0,1.0,95,0.00,,,0.00,WeatherCatV1.02B3,2013-03-31 05:26:00,
2013-03-31 00:31:00,57.9,56.5,30.03,NNW,335,0.0,1.0,95,0.00,,,0.00,WeatherCatV1.02B3,2013-03-31 05:31:00,
2013-03-31 00:36:00,57.9,56.5,30.03,NNW,336,0.0,2.0,95,0.00,,,0.00,WeatherCatV1.02B3,2013-03-31 05:36:00,
2013-03-31 00:41:00,57.9,56.5,30.03,NW,312,0.0,2.0,95,0.00,,,0.00,WeatherCatV1.02B3,2013-03-31 05:41:00,
2013-03-31 00:46:00,58.0,56.3,30.03,NW,313,3.0,3.0,94,0.00,,,0.00,WeatherCatV1.02B3,2013-03-31 05:46:00,
2013-03-31 00:51:00,57.9,56.2,30.03,NW,313,0.0,1.0,94,0.00,,,0.00,WeatherCatV1.02B3,2013-03-31 05:51:00,
2013-03-31 00:56:00,57.9,56.2,30.03,NW,313,0.0,3.0,94,0.00,,,0.00,WeatherCatV1.02B3,2013-03-31 05:56:00,
2013-03-31 01:01:00,57.9,56.2,30.03,NW,313,0.0,1.0,94,0.00,,,0.00,WeatherCatV1.02B3,2013-03-31 06:01:00,
2013-03-31 01:06:00,57.8,56.1,30.03,NW,313,0.0,1.0,94,0.00,,,0.00,WeatherCatV1.02B3,2013-03-31 06:06:00,
2013-03-31 01:11:00,57.8,56.1,30.03,NW,313,0.0,1.0,94,0.00,,,0.00,WeatherCatV1.02B3,2013-03-31 06:11:00,
2013-03-31 01:16:00,57.7,56.0,30.03,NW,313,0.0,1.0,94,0.00,,,0.00,WeatherCatV1.02B3,2013-03-31 06:16:00,
2013-03-31 01:21:00,57.8,56.1,30.03,NW,314,0.0,4.0,94,0.00,,,0.00,WeatherCatV1.02B3,2013-03-31 06:21:00,
2013-03-31 01:26:00,57.8,56.1,30.03,NW,314,0.0,1.0,94,0.00,,,0.00,WeatherCatV1.02B3,2013-03-31 06:26:00,
2013-03-31 01:31:00,58.0,56.3,30.03,North,355,3.0,3.0,94,0.00,,,0.00,WeatherCatV1.02B3,2013-03-31 06:31:00,
2013-03-31 01:36:00,58.1,56.4,30.02,North,355,0.0,4.0,94,0.00,,,0.00,WeatherCatV1.02B3,2013-03-31 06:36:00,
2013-03-31 01:41:00,58.1,56.4,30.02,North,355,0.0,1.0,94,0.00,,,0.00,WeatherCatV1.02B3,2013-03-31 06:41:00,
2013-03-31 01:46:00,58.2,56.5,30.03,NNW,346,0.0,1.0,94,0.00,,,0.00,WeatherCatV1.02B3,2013-03-31 06:46:00,
2013-03-31 01:51:00,58.2,56.2,30.02,NNW,346,0.0,2.0,93,0.00,,,0.00,WeatherCatV1.02B3,2013-03-31 06:51:00,
2013-03-31 01:56:00,58.2,56.2,30.02,NNW,332,0.0,2.0,93,0.00,,,0.00,WeatherCatV1.02B3,2013-03-31 06:56:00,
2013-03-31 02:01:00,58.2,56.2,30.03,NNW,332,0.0,0.0,93,0.00,,,0.00,WeatherCatV1.02B3,2013-03-31 07:01:00,
2013-03-31 02:06:00,58.1,56.1,30.03,NNW,332,0.0,2.0,93,0.00,,,0.00,WeatherCatV1.02B3,2013-03-31 07:06:00,
2013-03-31 02:11:00,58.1,56.1,30.02,NNW,332,0.0,0.0,93,0.00,,,0.00,WeatherCatV1.02B3,2013-03-31 07:11:00,
2013-03-31 02:16:00,58.0,56.0,30.02,NNW,332,0.0,1.0,93,0.00,,,0.00,WeatherCatV1.02B3,2013-03-31 07:16:00,
2013-03-31 02:21:00,58.0,56.0,30.02,NNW,332,0.0,1.0,93,0.00,,,0.00,WeatherCatV1.02B3,2013-03-31 07:21:00,
2013-03-31 02:26:00,58.0,56.0,30.02,NNW,332,0.0,0.0,93,0.00,,,0.00,WeatherCatV1.02B3,2013-03-31 07:26:00,
2013-03-31 02:31:00,58.0,56.0,30.02,NNW,332,0.0,2.0,93,0.00,,,0.00,WeatherCatV1.02B3,2013-03-31 07:31:00,
2013-03-31 02:36:00,57.9,55.9,30.02,NNW,332,0.0,0.0,93,0.00,,,0.00,WeatherCatV1.02B3,2013-03-31 07:36:00,
2013-03-31 02:41:00,57.8,55.8,30.02,NNW,332,0.0,2.0,93,0.00,,,0.00,WeatherCatV1.02B3,2013-03-31 07:41:00,
2013-03-31 02:46:00,57.8,55.8,30.02,NNW,332,0.0,1.0,93,0.00,,,0.00,WeatherCatV1.02B3,2013-03-31 07:46:00,
2013-03-31 02:51:00,57.8,55.8,30.02,NNW,332,0.0,0.0,93,0.00,,,0.00,WeatherCatV1.02B3,2013-03-31 07:51:00,
2013-03-31 02:56:00,57.7,55.7,30.02,NNW,332,0.0,1.0,93,0.00,,,0.00,WeatherCatV1.02B3,2013-03-31 07:56:00,
2013-03-31 03:01:00,57.7,55.7,30.02,NNW,332,0.0,0.0,93,0.00,,,0.00,WeatherCatV1.02B3,2013-03-31 08:01:00,
2013-03-31 03:06:00,57.7,55.7,30.01,NNW,332,0.0,1.0,93,0.00,,,0.00,WeatherCatV1.02B3,2013-03-31 08:06:00,
2013-03-31 03:11:00,57.7,55.7,30.01,NNW,335,0.0,3.0,93,0.00,,,0.00,WeatherCatV1.02B3,2013-03-31 08:11:00,
2013-03-31 03:16:00,57.7,55.7,30.00,NNW,338,0.0,4.0,93,0.00,,,0.00,WeatherCatV1.02B3,2013-03-31 08:16:00,
2013-03-31 03:21:00,57.8,55.8,30.00,NNW,338,0.0,3.0,93,0.00,,,0.00,WeatherCatV1.02B3,2013-03-31 08:21:00,
2013-03-31 03:26:00,57.8,55.8,30.00,NNW,338,0.0,3.0,93,0.00,,,0.00,WeatherCatV1.02B3,2013-03-31 08:26:00,
2013-03-31 03:31:00,57.8,55.8,30.00,NNW,338,0.0,3.0,93,0.00,,,0.00,WeatherCatV1.02B3,2013-03-31 08:31:00,
2013-03-31 03:36:00,57.8,55.8,30.00,North,355,0.0,4.0,93,0.00,,,0.00,WeatherCatV1.02B3,2013-03-31 08:36:00,
2013-03-31 03:41:00,57.8,56.1,30.00,NNW,340,1.0,4.0,94,0.00,,,0.00,WeatherCatV1.02B3,2013-03-31 08:41:00,
2013-03-31 03:46:00,57.8,56.1,29.99,NNW,340,1.0,3.0,94,0.00,,,0.00,WeatherCatV1.02B3,2013-03-31 08:46:00,
2013-03-31 03:51:00,57.8,56.1,29.99,NW,304,0.0,2.0,94,0.00,,,0.00,WeatherCatV1.02B3,2013-03-31 08:51:00,
2013-03-31 03:56:00,57.8,56.1,29.99,NW,326,1.0,4.0,94,0.00,,,0.00,WeatherCatV1.02B3,2013-03-31 08:56:00,
2013-03-31 04:01:00,57.9,56.2,29.99,NNW,342,3.0,3.0,94,0.00,,,0.00,WeatherCatV1.02B3,2013-03-31 09:01:00,
2013-03-31 04:06:00,58.0,56.3,29.99,NNW,342,1.0,2.0,94,0.00,,,0.00,WeatherCatV1.02B3,2013-03-31 09:06:00,
2013-03-31 04:11:00,58.0,56.3,29.99,NNW,346,0.0,4.0,94,0.00,,,0.00,WeatherCatV1.02B3,2013-03-31 09:11:00,
2013-03-31 04:16:00,58.1,56.4,29.99,NNW,329,0.0,4.0,94,0.00,,,0.00,WeatherCatV1.02B3,2013-03-31 09:16:00,
2013-03-31 04:21:00,58.2,56.5,29.99,NW,311,0.0,2.0,94,0.00,,,0.00,WeatherCatV1.02B3,2013-03-31 09:21:00,
2013-03-31 04:26:00,58.2,56.5,29.99,NW,325,4.0,4.0,94,0.00,,,0.00,WeatherCatV1.02B3,2013-03-31 09:26:00,
2013-03-31 04:31:00,58.2,56.5,29.99,NNW,328,0.0,3.0,94,0.00,,,0.00,WeatherCatV1.02B3,2013-03-31 09:31:00,
2013-03-31 04:36:00,58.2,56.5,29.99,NNW,342,0.0,1.0,94,0.00,,,0.00,WeatherCatV1.02B3,2013-03-31 09:36:00,
2013-03-31 04:41:00,58.2,56.5,29.99,NNW,342,3.0,3.0,94,0.00,,,0.00,WeatherCatV1.02B3,2013-03-31 09:41:00,
2013-03-31 04:46:00,58.1,56.4,29.99,NNW,342,0.0,2.0,94,0.00,,,0.00,WeatherCatV1.02B3,2013-03-31 09:46:00,
2013-03-31 04:51:00,58.0,56.3,29.99,NNW,342,0.0,1.0,94,0.00,,,0.00,WeatherCatV1.02B3,2013-03-31 09:51:00,
2013-03-31 04:56:00,58.0,56.3,29.99,NNW,342,1.0,3.0,94,0.00,,,0.00,WeatherCatV1.02B3,2013-03-31 09:56:00,
2013-03-31 05:01:00,58.0,56.3,29.99,NNW,342,0.0,3.0,94,0.00,,,0.00,WeatherCatV1.02B3,2013-03-31 10:01:00,
2013-03-31 05:06:00,58.0,56.3,29.98,NNW,342,0.0,2.0,94,0.00,,,0.00,WeatherCatV1.02B3,2013-03-31 10:06:00,
2013-03-31 05:11:00,58.0,56.3,29.98,NNW,342,0.0,2.0,94,0.00,,,0.00,WeatherCatV1.02B3,2013-03-31 10:11:00,
2013-03-31 05:16:00,58.0,56.3,29.98,NNW,330,0.0,1.0,94,0.00,,,0.00,WeatherCatV1.02B3,2013-03-31 10:16:00,
2013-03-31 05:21:00,58.0,56.3,29.98,North,0,2.0,5.0,94,0.00,,,0.00,WeatherCatV1.02B3,2013-03-31 10:21:00,
2013-03-31 05:26:00,57.9,56.2,29.98,North,350,0.0,0.0,94,0.00,,,0.00,WeatherCatV1.02B3,2013-03-31 10:26:00,
2013-03-31 05:31:00,57.8,56.4,29.99,North,350,0.0,2.0,95,0.00,,,0.00,WeatherCatV1.02B3,2013-03-31 10:31:00,
2013-03-31 05:36:00,57.8,56.4,29.99,North,350,0.0,2.0,95,0.00,,,0.00,WeatherCatV1.02B3,2013-03-31 10:36:00,
2013-03-31 05:41:00,57.9,56.5,29.99,North,350,0.0,3.0,95,0.00,,,0.00,WeatherCatV1.02B3,2013-03-31 10:41:00,
2013-03-31 05:46:00,58.1,56.7,29.99,NNW,346,0.0,1.0,95,0.00,,,0.00,WeatherCatV1.02B3,2013-03-31 10:46:00,
2013-03-31 05:51:00,58.2,56.8,29.99,NNW,346,1.0,3.0,95,0.00,,,0.00,WeatherCatV1.02B3,2013-03-31 10:51:00,
2013-03-31 05:56:00,58.4,57.0,29.99,NNW,346,1.0,2.0,95,0.00,,,0.00,WeatherCatV1.02B3,2013-03-31 10:56:00,
2013-03-31 06:01:00,58.6,57.2,30.00,NNW,346,0.0,4.0,95,0.00,,,0.00,WeatherCatV1.02B3,2013-03-31 11:01:00,
2013-03-31 06:06:00,58.7,57.3,30.00,NNW,346,0.0,2.0,95,0.00,,,0.00,WeatherCatV1.02B3,2013-03-31 11:06:00,
2013-03-31 06:11:00,58.9,57.5,30.00,NNW,346,0.0,1.0,95,0.00,,,0.00,WeatherCatV1.02B3,2013-03-31 11:11:00,
2013-03-31 06:16:00,58.9,57.5,30.00,NNW,346,0.0,2.0,95,0.00,,,0.00,WeatherCatV1.02B3,2013-03-31 11:16:00,
2013-03-31 06:21:00,59.1,57.7,30.00,NNW,346,0.0,1.0,95,0.00,,,0.00,WeatherCatV1.02B3,2013-03-31 11:21:00,
2013-03-31 06:26:00,59.1,57.7,30.00,NNW,346,0.0,2.0,95,0.00,,,0.00,WeatherCatV1.02B3,2013-03-31 11:26:00,
2013-03-31 06:31:00,59.2,57.8,29.99,NNW,346,0.0,3.0,95,0.00,,,0.00,WeatherCatV1.02B3,2013-03-31 11:31:00,
2013-03-31 06:36:00,59.4,58.0,30.00,NNW,346,0.0,3.0,95,0.00,,,0.00,WeatherCatV1.02B3,2013-03-31 11:36:00,
2013-03-31 06:41:00,59.5,58.1,30.00,NNW,346,0.0,2.0,95,0.00,,,0.00,WeatherCatV1.02B3,2013-03-31 11:41:00,
2013-03-31 06:46:00,59.5,58.1,30.00,North,355,0.0,3.0,95,0.00,,,0.00,WeatherCatV1.02B3,2013-03-31 11:46:00,
2013-03-31 06:51:00,59.6,58.2,30.00,North,355,4.0,4.0,95,0.00,,,0.00,WeatherCatV1.02B3,2013-03-31 11:51:00,
2013-03-31 06:56:00,59.7,58.6,30.00,North,355,0.0,1.0,96,0.00,,,0.00,WeatherCatV1.02B3,2013-03-31 11:56:00,
2013-03-31 07:01:00,59.8,58.7,29.99,North,355,0.0,1.0,96,0.00,,,0.00,WeatherCatV1.02B3,2013-03-31 12:01:00,
2013-03-31 07:06:00,59.8,58.7,30.00,North,355,0.0,0.0,96,0.00,,,0.00,WeatherCatV1.02B3,2013-03-31 12:06:00,
2013-03-31 07:11:00,59.9,58.8,30.00,NNW,333,0.0,3.0,96,0.00,,,0.00,WeatherCatV1.02B3,2013-03-31 12:11:00,
2013-03-31 07:16:00,59.9,58.8,30.00,NW,323,0.0,0.0,96,0.00,,,0.00,WeatherCatV1.02B3,2013-03-31 12:16:00,
2013-03-31 07:21:00,60.0,58.9,30.00,NW,326,0.0,3.0,96,0.00,,,0.00,WeatherCatV1.02B3,2013-03-31 12:21:00,
2013-03-31 07:26:00,60.1,59.0,30.00,NW,320,2.0,2.0,96,0.00,,,0.00,WeatherCatV1.02B3,2013-03-31 12:26:00,
2013-03-31 07:31:00,60.2,59.1,30.01,NW,320,0.0,0.0,96,0.00,,,0.00,WeatherCatV1.02B3,2013-03-31 12:31:00,
2013-03-31 07:36:00,60.3,59.2,30.01,NW,320,0.0,1.0,96,0.00,,,0.00,WeatherCatV1.02B3,2013-03-31 12:36:00,
2013-03-31 07:41:00,60.4,59.3,30.01,NW,320,0.0,2.0,96,0.00,,,0.00,WeatherCatV1.02B3,2013-03-31 12:41:00,
2013-03-31 07:46:00,60.5,59.4,30.00,NW,320,0.0,3.0,96,0.00,,,0.00,WeatherCatV1.02B3,2013-03-31 12:46:00,
2013-03-31 07:51:00,60.6,59.5,30.00,NW,319,1.0,3.0,96,0.00,,,0.00,WeatherCatV1.02B3,2013-03-31 12:51:00,
2013-03-31 07:56:00,60.7,59.5,30.00,NW,319,0.0,0.0,96,0.00,,,0.00,WeatherCatV1.02B3,2013-03-31 12:56:00,
2013-03-31 08:01:00,60.7,59.5,30.00,NW,319,1.0,2.0,96,0.00,,,0.00,WeatherCatV1.02B3,2013-03-31 13:01:00,
2013-03-31 08:06:00,60.8,59.7,30.00,NNW,330,1.0,4.0,96,0.00,,,0.00,WeatherCatV1.02B3,2013-03-31 13:06:00,
2013-03-31 08:11:00,61.0,59.8,30.00,NNW,330,1.0,4.0,96,0.00,,,0.00,WeatherCatV1.02B3,2013-03-31 13:11:00,
2013-03-31 08:16:00,61.1,59.9,30.00,NNW,344,0.0,3.0,96,0.00,,,0.00,WeatherCatV1.02B3,2013-03-31 13:16:00,
2013-03-31 08:21:00,61.2,60.0,30.00,NNW,346,0.0,3.0,96,0.00,,,0.00,WeatherCatV1.02B3,2013-03-31 13:21:00,
2013-03-31 08:26:00,61.4,60.0,30.00,NNW,342,0.0,3.0,95,0.00,,,0.00,WeatherCatV1.02B3,2013-03-31 13:26:00,
2013-03-31 08:31:00,61.5,60.1,30.00,NNW,342,0.0,1.0,95,0.00,,,0.00,WeatherCatV1.02B3,2013-03-31 13:31:00,
2013-03-31 08:36:00,61.7,60.2,30.00,NNW,342,2.0,3.0,95,0.00,,,0.00,WeatherCatV1.02B3,2013-03-31 13:36:00,
2013-03-31 08:41:00,61.8,60.3,30.00,NNW,342,0.0,0.0,95,0.00,,,0.00,WeatherCatV1.02B3,2013-03-31 13:41:00,
2013-03-31 08:46:00,61.9,60.4,30.00,NNE,14,0.0,4.0,95,0.00,,,0.00,WeatherCatV1.02B3,2013-03-31 13:46:00,
2013-03-31 08:51:00,62.0,60.5,30.00,North,11,0.0,3.0,95,0.00,,,0.00,WeatherCatV1.02B3,2013-03-31 13:51:00,
2013-03-31 08:56:00,62.2,60.7,30.00,WNW,301,0.0,0.0,95,0.00,,,0.00,WeatherCatV1.02B3,2013-03-31 13:56:00,
2013-03-31 09:01:00,62.5,60.7,30.00,NNW,337,0.0,1.0,94,0.00,,,0.00,WeatherCatV1.02B3,2013-03-31 14:01:00,
2013-03-31 09:06:00,62.7,60.9,30.00,North,350,0.0,4.0,94,0.00,,,0.00,WeatherCatV1.02B3,2013-03-31 14:06:00,
2013-03-31 09:11:00,63.0,61.2,30.01,North,350,0.0,1.0,94,0.00,,,0.00,WeatherCatV1.02B3,2013-03-31 14:11:00,
2013-03-31 09:16:00,63.3,61.5,30.01,North,350,2.0,2.0,94,0.00,,,0.00,WeatherCatV1.02B3,2013-03-31 14:16:00,
2013-03-31 09:21:00,63.4,61.3,30.01,North,350,0.0,1.0,93,0.00,,,0.00,WeatherCatV1.02B3,2013-03-31 14:21:00,
2013-03-31 09:26:00,63.4,61.0,30.02,North,350,0.0,0.0,92,0.00,,,0.00,WeatherCatV1.02B3,2013-03-31 14:26:00,
2013-03-31 09:31:00,63.4,60.7,30.02,North,350,0.0,1.0,91,0.00,,,0.00,WeatherCatV1.02B3,2013-03-31 14:31:00,
2013-03-31 09:36:00,63.4,60.7,30.02,North,350,0.0,2.0,91,0.00,,,0.00,WeatherCatV1.02B3,2013-03-31 14:36:00,
2013-03-31 09:41:00,63.4,60.7,30.02,North,350,0.0,0.0,91,0.00,,,0.00,WeatherCatV1.02B3,2013-03-31 14:41:00,
2013-03-31 09:46:00,63.3,60.6,30.01,North,350,0.0,1.0,91,0.00,,,0.00,WeatherCatV1.02B3,2013-03-31 14:46:00,
2013-03-31 09:51:00,63.4,60.7,30.02,North,350,0.0,0.0,91,0.00,,,0.00,WeatherCatV1.02B3,2013-03-31 14:51:00,
2013-03-31 09:56:00,63.6,60.9,30.02,North,350,0.0,1.0,91,0.00,,,0.00,WeatherCatV1.02B3,2013-03-31 14:56:00,
2013-03-31 10:01:00,63.8,61.1,30.01,North,350,0.0,2.0,91,0.00,,,0.00,WeatherCatV1.02B3,2013-03-31 15:01:00,
2013-03-31 10:06:00,64.0,61.3,30.01,WSW,237,0.0,2.0,91,0.00,,,0.00,WeatherCatV1.02B3,2013-03-31 15:06:00,
2013-03-31 10:11:00,64.1,61.1,30.01,SSW,197,3.0,4.0,90,0.00,,,0.00,WeatherCatV1.02B3,2013-03-31 15:11:00,
2013-03-31 10:16:00,64.2,61.2,30.01,South,169,5.0,5.0,90,0.00,,,0.00,WeatherCatV1.02B3,2013-03-31 15:16:00,
2013-03-31 10:21:00,64.3,61.3,30.01,South,180,0.0,2.0,90,0.00,,,0.00,WeatherCatV1.02B3,2013-03-31 15:21:00,
2013-03-31 10:26:00,64.4,61.4,30.00,WSW,254,1.0,2.0,90,0.00,,,0.00,WeatherCatV1.02B3,2013-03-31 15:26:00,
2013-03-31 10:31:00,64.6,61.6,30.00,WSW,254,0.0,2.0,90,0.00,,,0.00,WeatherCatV1.02B3,2013-03-31 15:31:00,
2013-03-31 10:36:00,64.7,61.7,30.00,WSW,254,2.0,2.0,90,0.00,,,0.00,WeatherCatV1.02B3,2013-03-31 15:36:00,
2013-03-31 10:41:00,65.0,62.0,30.00,WSW,254,1.0,3.0,90,0.00,,,0.00,WeatherCatV1.02B3,2013-03-31 15:41:00,
2013-03-31 10:46:00,65.3,62.0,30.00,WSW,254,0.0,0.0,89,0.00,,,0.00,WeatherCatV1.02B3,2013-03-31 15:46:00,
2013-03-31 10:51:00,65.7,62.4,30.00,WSW,254,0.0,1.0,89,0.00,,,0.00,WeatherCatV1.02B3,2013-03-31 15:51:00,
2013-03-31 10:56:00,66.1,62.4,30.00,WSW,254,0.0,1.0,88,0.00,,,0.00,WeatherCatV1.02B3,2013-03-31 15:56:00,
2013-03-31 11:01:00,66.7,62.7,30.00,West,265,0.0,3.0,87,0.00,,,0.00,WeatherCatV1.02B3,2013-03-31 16:01:00,
2013-03-31 11:06:00,67.2,62.9,30.00,WNW,288,5.0,5.0,86,0.00,,,0.00,WeatherCatV1.02B3,2013-03-31 16:06:00,
2013-03-31 11:11:00,67.9,63.2,29.99,WNW,299,0.0,2.0,85,0.00,,,0.00,WeatherCatV1.02B3,2013-03-31 16:11:00,
2013-03-31 11:16:00,68.6,63.9,29.99,WNW,296,1.0,3.0,85,0.00,,,0.00,WeatherCatV1.02B3,2013-03-31 16:16:00,
2013-03-31 11:21:00,69.3,63.6,29.99,WNW,299,0.0,2.0,82,0.00,,,0.00,WeatherCatV1.02B3,2013-03-31 16:21:00,
2013-03-31 11:26:00,69.7,63.9,29.99,WNW,297,0.0,4.0,82,0.00,,,0.00,WeatherCatV1.02B3,2013-03-31 16:26:00,
2013-03-31 11:31:00,70.0,64.2,29.99,WNW,298,1.0,4.0,82,0.00,,,0.00,WeatherCatV1.02B3,2013-03-31 16:31:00,
2013-03-31 11:36:00,70.2,63.7,29.99,North,355,1.0,4.0,80,0.00,,,0.00,WeatherCatV1.02B3,2013-03-31 16:36:00,
2013-03-31 11:41:00,70.5,64.0,29.98,NW,304,3.0,4.0,80,0.00,,,0.00,WeatherCatV1.02B3,2013-03-31 16:41:00,
2013-03-31 11:46:00,70.9,64.1,29.99,NNW,331,1.0,1.0,79,0.00,,,0.00,WeatherCatV1.02B3,2013-03-31 16:46:00,
2013-03-31 11:51:00,71.2,63.6,29.99,North,349,1.0,2.0,77,0.00,,,0.00,WeatherCatV1.02B3,2013-03-31 16:51:00,
2013-03-31 11:56:00,71.5,63.9,29.99,NW,315,1.0,4.0,77,0.00,,,0.00,WeatherCatV1.02B3,2013-03-31 16:56:00,
2013-03-31 12:01:00,71.5,62.8,30.00,NW,315,1.0,6.0,74,0.00,,,0.00,WeatherCatV1.02B3,2013-03-31 17:01:00,
2013-03-31 12:06:00,71.7,63.3,29.99,NNW,327,0.0,1.0,75,0.00,,,0.00,WeatherCatV1.02B3,2013-03-31 17:06:00,
2013-03-31 12:11:00,71.6,62.5,29.99,NE,38,0.0,4.0,73,0.00,,,0.00,WeatherCatV1.02B3,2013-03-31 17:11:00,
2013-03-31 12:16:00,71.4,62.7,29.99,NNE,26,0.0,0.0,74,0.00,,,0.00,WeatherCatV1.02B3,2013-03-31 17:16:00,
2013-03-31 12:21:00,71.2,62.5,29.99,NE,51,0.0,2.0,74,0.00,,,0.00,WeatherCatV1.02B3,2013-03-31 17:21:00,
2013-03-31 12:26:00,70.7,62.4,29.99,ENE,64,1.0,6.0,75,0.00,,,0.00,WeatherCatV1.02B3,2013-03-31 17:26:00,
2013-03-31 12:31:00,70.3,62.4,29.99,NE,35,0.0,6.0,76,0.00,,,0.00,WeatherCatV1.02B3,2013-03-31 17:31:00,
2013-03-31 12:36:00,70.0,62.4,29.99,NNE,24,0.0,2.0,77,0.00,,,0.00,WeatherCatV1.02B3,2013-03-31 17:36:00,
2013-03-31 12:41:00,69.9,62.3,29.99,ENE,73,3.0,6.0,77,0.00,,,0.00,WeatherCatV1.02B3,2013-03-31 17:41:00,
2013-03-31 12:46:00,69.9,62.3,29.99,East,80,0.0,5.0,77,0.00,,,0.00,WeatherCatV1.02B3,2013-03-31 17:46:00,
2013-03-31 12:51:00,69.8,61.9,29.99,ENE,68,2.0,8.0,76,0.00,,,0.00,WeatherCatV1.02B3,2013-03-31 17:51:00,
2013-03-31 12:56:00,69.8,61.9,29.99,ENE,74,1.0,5.0,76,0.00,,,0.00,WeatherCatV1.02B3,2013-03-31 17:56:00,
2013-03-31 13:01:00,69.8,61.9,30.00,ENE,65,3.0,5.0,76,0.00,,,0.00,WeatherCatV1.02B3,2013-03-31 18:01:00,
2013-03-31 13:06:00,70.0,62.1,29.99,ENE,71,0.0,3.0,76,0.00,,,0.00,WeatherCatV1.02B3,2013-03-31 18:06:00,
2013-03-31 13:11:00,70.1,62.2,29.99,ENE,57,3.0,5.0,76,0.00,,,0.00,WeatherCatV1.02B3,2013-03-31 18:11:00,
2013-03-31 13:16:00,70.2,62.3,29.99,ENE,75,1.0,4.0,76,0.00,,,0.00,WeatherCatV1.02B3,2013-03-31 18:16:00,
2013-03-31 13:21:00,70.3,62.4,29.99,ENE,66,0.0,6.0,76,0.00,,,0.00,WeatherCatV1.02B3,2013-03-31 18:21:00,
2013-03-31 13:26:00,69.8,62.3,29.99,NE,47,2.0,5.0,77,0.00,,,0.00,WeatherCatV1.02B3,2013-03-31 18:26:00,
2013-03-31 13:31:00,69.3,62.5,29.99,ENE,76,0.0,5.0,79,0.00,,,0.00,WeatherCatV1.02B3,2013-03-31 18:31:00,
2013-03-31 13:36:00,69.0,62.6,29.99,ENE,76,0.0,0.0,80,0.00,,,0.00,WeatherCatV1.02B3,2013-03-31 18:36:00,
2013-03-31 13:41:00,69.3,62.9,29.98,ENE,67,0.0,3.0,80,0.00,,,0.00,WeatherCatV1.02B3,2013-03-31 18:41:00,
2013-03-31 13:46:00,69.7,63.2,29.98,ENE,67,0.0,0.0,80,0.00,,,0.00,WeatherCatV1.02B3,2013-03-31 18:46:00,
2013-03-31 13:51:00,70.1,62.9,29.98,NNE,17,0.0,3.0,78,0.00,,,0.00,WeatherCatV1.02B3,2013-03-31 18:51:00,
2013-03-31 13:56:00,70.3,63.1,29.97,NNE,17,0.0,1.0,78,0.00,,,0.00,WeatherCatV1.02B3,2013-03-31 18:56:00,
2013-03-31 14:01:00,70.2,62.3,29.97,NNE,26,0.0,3.0,76,0.00,,,0.00,WeatherCatV1.02B3,2013-03-31 19:01:00,
2013-03-31 14:06:00,70.1,62.5,29.97,NNE,26,0.0,1.0,77,0.00,,,0.00,WeatherCatV1.02B3,2013-03-31 19:06:00,
2013-03-31 14:11:00,70.0,62.8,29.97,NNE,26,0.0,0.0,78,0.00,,,0.00,WeatherCatV1.02B3,2013-03-31 19:11:00,
2013-03-31 14:16:00,69.8,62.3,29.97,NNE,17,0.0,2.0,77,0.00,,,0.00,WeatherCatV1.02B3,2013-03-31 19:16:00,
2013-03-31 14:21:00,69.6,62.4,29.97,NNE,17,1.0,2.0,78,0.00,,,0.00,WeatherCatV1.02B3,2013-03-31 19:21:00,
2013-03-31 14:26:00,69.4,62.2,29.97,NNW,344,0.0,0.0,78,0.00,,,0.00,WeatherCatV1.02B3,2013-03-31 19:26:00,
2013-03-31 14:31:00,69.2,62.0,29.97,NNW,344,0.0,1.0,78,0.00,,,0.00,WeatherCatV1.02B3,2013-03-31 19:31:00,
2013-03-31 14:36:00,68.9,62.1,29.97,NNW,344,2.0,2.0,79,0.00,,,0.00,WeatherCatV1.02B3,2013-03-31 19:36:00,
2013-03-31 14:41:00,68.5,62.4,29.97,North,5,0.0,3.0,81,0.00,,,0.00,WeatherCatV1.02B3,2013-03-31 19:41:00,
2013-03-31 14:46:00,68.1,62.7,29.97,North,9,0.0,4.0,83,0.00,,,0.01,WeatherCatV1.02B3,2013-03-31 19:46:00,
2013-03-31 14:51:00,67.5,62.8,29.97,North,9,0.0,2.0,85,0.13,,,0.02,WeatherCatV1.02B3,2013-03-31 19:51:00,
2013-03-31 14:56:00,67.0,63.0,29.97,North,9,0.0,0.0,87,0.91,,,0.06,WeatherCatV1.02B3,2013-03-31 19:56:00,
2013-03-31 15:01:00,66.3,62.6,29.97,North,9,0.0,2.0,88,0.44,,,0.12,WeatherCatV1.02B3,2013-03-31 20:01:00,
2013-03-31 15:06:00,65.6,61.9,29.96,North,9,0.0,0.0,88,0.19,,,0.15,WeatherCatV1.02B3,2013-03-31 20:06:00,
2013-03-31 15:11:00,64.7,61.4,29.98,North,9,0.0,0.0,89,0.14,,,0.16,WeatherCatV1.02B3,2013-03-31 20:11:00,
2013-03-31 15:16:00,63.1,59.5,30.00,NE,50,4.0,10.0,88,0.30,,,0.19,WeatherCatV1.02B3,2013-03-31 20:16:00,
2013-03-31 15:21:00,61.3,57.7,30.01,ENE,64,0.0,11.0,88,0.16,,,0.20,WeatherCatV1.02B3,2013-03-31 20:21:00,
2013-03-31 15:26:00,60.6,57.0,30.02,ENE,59,4.0,11.0,88,0.10,,,0.21,WeatherCatV1.02B3,2013-03-31 20:26:00,
2013-03-31 15:31:00,60.2,57.3,30.01,East,96,2.0,6.0,90,0.12,,,0.22,WeatherCatV1.02B3,2013-03-31 20:31:00,
2013-03-31 15:36:00,59.9,57.0,30.01,East,96,2.0,5.0,90,0.35,,,0.24,WeatherCatV1.02B3,2013-03-31 20:36:00,
2013-03-31 15:41:00,59.6,57.0,30.00,ENE,72,0.0,3.0,91,0.36,,,0.26,WeatherCatV1.02B3,2013-03-31 20:41:00,
2013-03-31 15:46:00,59.5,56.9,30.00,ENE,65,0.0,5.0,91,0.14,,,0.27,WeatherCatV1.02B3,2013-03-31 20:46:00,
2013-03-31 15:51:00,59.3,57.0,29.99,ENE,69,0.0,4.0,92,0.18,,,0.29,WeatherCatV1.02B3,2013-03-31 20:51:00,
2013-03-31 15:56:00,59.3,57.0,29.98,SE,146,5.0,7.0,92,0.23,,,0.31,WeatherCatV1.02B3,2013-03-31 20:56:00,
2013-03-31 16:01:00,59.3,57.3,29.97,South,173,0.0,2.0,93,0.20,,,0.32,WeatherCatV1.02B3,2013-03-31 21:01:00,
2013-03-31 16:06:00,59.2,57.2,29.97,South,173,0.0,1.0,93,0.08,,,0.33,WeatherCatV1.02B3,2013-03-31 21:06:00,
2013-03-31 16:11:00,59.1,57.1,29.97,South,173,0.0,2.0,93,0.08,,,0.33,WeatherCatV1.02B3,2013-03-31 21:11:00,
2013-03-31 16:16:00,59.1,57.1,29.94,South,174,2.0,2.0,93,0.09,,,0.34,WeatherCatV1.02B3,2013-03-31 21:16:00,
2013-03-31 16:21:00,59.3,57.6,29.89,SW,216,2.0,2.0,94,0.06,,,0.34,WeatherCatV1.02B3,2013-03-31 21:21:00,
2013-03-31 16:26:00,59.3,57.6,29.86,NW,307,0.0,5.0,94,0.04,,,0.34,WeatherCatV1.02B3,2013-03-31 21:26:00,
2013-03-31 16:31:00,59.2,57.5,29.85,WNW,282,0.0,6.0,94,0.00,,,0.34,WeatherCatV1.02B3,2013-03-31 21:31:00,
2013-03-31 16:36:00,59.1,57.4,29.86,West,273,0.0,8.0,94,0.00,,,0.34,WeatherCatV1.02B3,2013-03-31 21:36:00,
2013-03-31 16:41:00,59.1,57.4,29.87,West,281,0.0,2.0,94,0.00,,,0.34,WeatherCatV1.02B3,2013-03-31 21:41:00,
2013-03-31 16:46:00,59.0,57.3,29.89,WSW,246,0.0,0.0,94,0.00,,,0.34,WeatherCatV1.02B3,2013-03-31 21:46:00,
2013-03-31 16:51:00,59.1,57.4,29.89,WSW,246,0.0,0.0,94,0.00,,,0.34,WeatherCatV1.02B3,2013-03-31 21:51:00,
2013-03-31 16:56:00,59.3,57.6,29.90,WSW,246,0.0,0.0,94,0.00,,,0.34,WeatherCatV1.02B3,2013-03-31 21:56:00,
2013-03-31 17:01:00,59.4,57.7,29.91,WSW,246,0.0,1.0,94,0.00,,,0.34,WeatherCatV1.02B3,2013-03-31 22:01:00,
2013-03-31 17:06:00,59.6,57.9,29.91,WSW,244,0.0,1.0,94,0.00,,,0.34,WeatherCatV1.02B3,2013-03-31 22:06:00,
2013-03-31 17:11:00,59.8,58.1,29.92,SW,215,0.0,1.0,94,0.00,,,0.34,WeatherCatV1.02B3,2013-03-31 22:11:00,
2013-03-31 17:16:00,59.7,58.0,29.92,SW,215,0.0,1.0,94,0.00,,,0.34,WeatherCatV1.02B3,2013-03-31 22:16:00,
2013-03-31 17:21:00,59.8,58.1,29.91,SW,215,0.0,1.0,94,0.00,,,0.34,WeatherCatV1.02B3,2013-03-31 22:21:00,
2013-03-31 17:26:00,59.9,58.2,29.91,SW,215,0.0,0.0,94,0.00,,,0.34,WeatherCatV1.02B3,2013-03-31 22:26:00,
2013-03-31 17:31:00,59.9,58.2,29.91,SW,215,0.0,0.0,94,0.00,,,0.34,WeatherCatV1.02B3,2013-03-31 22:31:00,
2013-03-31 17:36:00,60.0,58.3,29.91,SW,215,0.0,0.0,94,0.00,,,0.34,WeatherCatV1.02B3,2013-03-31 22:36:00,
2013-03-31 17:41:00,60.1,58.4,29.91,SW,215,0.0,0.0,94,0.00,,,0.34,WeatherCatV1.02B3,2013-03-31 22:41:00,
2013-03-31 17:46:00,60.1,58.4,29.92,SW,215,0.0,0.0,94,0.00,,,0.34,WeatherCatV1.02B3,2013-03-31 22:46:00,
2013-03-31 17:51:00,60.0,58.3,29.92,SW,215,0.0,0.0,94,0.00,,,0.34,WeatherCatV1.02B3,2013-03-31 22:51:00,
2013-03-31 17:56:00,60.0,58.3,29.92,SW,215,0.0,0.0,94,0.00,,,0.34,WeatherCatV1.02B3,2013-03-31 22:56:00,
2013-03-31 18:01:00,60.0,58.3,29.92,SW,215,0.0,0.0,94,0.00,,,0.34,WeatherCatV1.02B3,2013-03-31 23:01:00,
2013-03-31 18:06:00,60.0,58.3,29.92,SW,215,0.0,0.0,94,0.00,,,0.34,WeatherCatV1.02B3,2013-03-31 23:06:00,
2013-03-31 18:11:00,59.9,57.9,29.92,SW,215,0.0,1.0,93,0.00,,,0.34,WeatherCatV1.02B3,2013-03-31 23:11:00,
2013-03-31 18:16:00,59.9,57.9,29.91,SW,215,0.0,0.0,93,0.00,,,0.34,WeatherCatV1.02B3,2013-03-31 23:16:00,
2013-03-31 18:21:00,60.1,58.4,29.92,SW,215,0.0,0.0,94,0.00,,,0.34,WeatherCatV1.02B3,2013-03-31 23:21:00,
2013-03-31 18:26:00,60.3,58.6,29.91,SW,215,0.0,0.0,94,0.00,,,0.34,WeatherCatV1.02B3,2013-03-31 23:26:00,
2013-03-31 18:31:00,60.7,59.0,29.91,SW,215,0.0,0.0,94,0.00,,,0.34,WeatherCatV1.02B3,2013-03-31 23:31:00,
2013-03-31 18:36:00,60.8,59.1,29.91,SW,215,0.0,0.0,94,0.00,,,0.34,WeatherCatV1.02B3,2013-03-31 23:36:00,
2013-03-31 18:41:00,60.8,59.1,29.91,SW,215,0.0,0.0,94,0.00,,,0.34,WeatherCatV1.02B3,2013-03-31 23:41:00,
2013-03-31 18:46:00,60.8,58.8,29.91,SW,215,0.0,0.0,93,0.00,,,0.34,WeatherCatV1.02B3,2013-03-31 23:46:00,
2013-03-31 18:51:00,60.6,58.6,29.91,SW,215,0.0,0.0,93,0.00,,,0.34,WeatherCatV1.02B3,2013-03-31 23:51:00,
2013-03-31 18:56:00,60.4,58.4,29.91,SW,215,0.0,0.0,93,0.00,,,0.34,WeatherCatV1.02B3,2013-03-31 23:56:00,
2013-03-31 19:01:00,60.3,58.3,29.91,SW,215,0.0,1.0,93,0.00,,,0.34,WeatherCatV1.02B3,2013-04-01 00:01:00,
2013-03-31 19:06:00,60.1,58.1,29.91,SW,215,0.0,0.0,93,0.00,,,0.34,WeatherCatV1.02B3,2013-04-01 00:06:00,
2013-03-31 19:11:00,60.0,58.0,29.92,SW,215,0.0,0.0,93,0.00,,,0.34,WeatherCatV1.02B3,2013-04-01 00:11:00,
2013-03-31 19:16:00,59.8,57.8,29.92,SW,215,0.0,0.0,93,0.00,,,0.34,WeatherCatV1.02B3,2013-04-01 00:16:00,
2013-03-31 19:21:00,59.6,57.6,29.92,SW,215,0.0,0.0,93,0.00,,,0.34,WeatherCatV1.02B3,2013-04-01 00:21:00,
2013-03-31 19:26:00,59.4,57.4,29.92,SW,215,0.0,0.0,93,0.00,,,0.34,WeatherCatV1.02B3,2013-04-01 00:26:00,
2013-03-31 19:31:00,59.2,57.2,29.92,SW,215,0.0,0.0,93,0.00,,,0.34,WeatherCatV1.02B3,2013-04-01 00:31:00,
2013-03-31 19:36:00,59.1,57.1,29.92,SW,215,0.0,0.0,93,0.00,,,0.34,WeatherCatV1.02B3,2013-04-01 00:36:00,
2013-03-31 19:41:00,58.9,56.9,29.92,SW,215,0.0,0.0,93,0.00,,,0.34,WeatherCatV1.02B3,2013-04-01 00:41:00,
2013-03-31 19:46:00,58.7,56.7,29.92,SW,215,0.0,0.0,93,0.00,,,0.34,WeatherCatV1.02B3,2013-04-01 00:46:00,
2013-03-31 19:51:00,58.5,56.5,29.92,SW,215,0.0,0.0,93,0.00,,,0.34,WeatherCatV1.02B3,2013-04-01 00:51:00,
2013-03-31 19:56:00,58.4,56.4,29.93,SW,215,0.0,0.0,93,0.00,,,0.34,WeatherCatV1.02B3,2013-04-01 00:56:00,
2013-03-31 20:01:00,58.3,56.3,29.93,SW,215,0.0,0.0,93,0.00,,,0.34,WeatherCatV1.02B3,2013-04-01 01:01:00,
2013-03-31 20:06:00,58.2,56.5,29.93,SW,215,0.0,0.0,94,0.00,,,0.34,WeatherCatV1.02B3,2013-04-01 01:06:00,
2013-03-31 20:11:00,58.0,56.3,29.93,SW,215,0.0,0.0,94,0.00,,,0.34,WeatherCatV1.02B3,2013-04-01 01:11:00,
2013-03-31 20:16:00,57.8,55.8,29.93,SW,215,0.0,0.0,93,0.00,,,0.34,WeatherCatV1.02B3,2013-04-01 01:16:00,
2013-03-31 20:21:00,57.6,55.6,29.94,SW,215,0.0,0.0,93,0.00,,,0.34,WeatherCatV1.02B3,2013-04-01 01:21:00,
2013-03-31 20:26:00,57.3,55.6,29.94,SW,215,0.0,0.0,94,0.00,,,0.34,WeatherCatV1.02B3,2013-04-01 01:26:00,
2013-03-31 20:31:00,57.1,55.1,29.94,SW,215,0.0,0.0,93,0.00,,,0.34,WeatherCatV1.02B3,2013-04-01 01:31:00,
2013-03-31 20:36:00,57.0,55.3,29.94,SW,215,0.0,0.0,94,0.00,,,0.34,WeatherCatV1.02B3,2013-04-01 01:36:00,
2013-03-31 20:41:00,56.9,55.2,29.94,SW,215,0.0,0.0,94,0.00,,,0.34,WeatherCatV1.02B3,2013-04-01 01:41:00,
2013-03-31 20:46:00,56.7,55.0,29.94,SW,215,0.0,0.0,94,0.00,,,0.34,WeatherCatV1.02B3,2013-04-01 01:46:00,
2013-03-31 20:51:00,56.6,54.9,29.95,SW,215,0.0,0.0,94,0.00,,,0.34,WeatherCatV1.02B3,2013-04-01 01:51:00,
2013-03-31 20:56:00,56.6,54.9,29.95,SW,215,0.0,0.0,94,0.00,,,0.34,WeatherCatV1.02B3,2013-04-01 01:56:00,
2013-03-31 21:01:00,56.5,54.8,29.95,SW,215,0.0,0.0,94,0.00,,,0.34,WeatherCatV1.02B3,2013-04-01 02:01:00,
2013-03-31 21:06:00,56.4,54.7,29.95,SW,215,0.0,0.0,94,0.00,,,0.34,WeatherCatV1.02B3,2013-04-01 02:06:00,
2013-03-31 21:11:00,56.3,54.6,29.95,SW,215,0.0,0.0,94,0.00,,,0.34,WeatherCatV1.02B3,2013-04-01 02:11:00,
2013-03-31 21:16:00,56.2,54.5,29.96,SW,215,0.0,0.0,94,0.00,,,0.34,WeatherCatV1.02B3,2013-04-01 02:16:00,
2013-03-31 21:21:00,56.2,54.5,29.97,SW,215,0.0,0.0,94,0.00,,,0.34,WeatherCatV1.02B3,2013-04-01 02:21:00,
2013-03-31 21:26:00,56.0,54.3,29.97,SW,215,0.0,0.0,94,0.00,,,0.34,WeatherCatV1.02B3,2013-04-01 02:26:00,
2013-03-31 21:31:00,56.0,54.3,29.97,SW,215,0.0,0.0,94,0.00,,,0.34,WeatherCatV1.02B3,2013-04-01 02:31:00,
2013-03-31 21:36:00,56.0,54.6,29.98,SW,215,0.0,0.0,95,0.00,,,0.34,WeatherCatV1.02B3,2013-04-01 02:36:00,
2013-03-31 21:41:00,56.0,54.6,29.98,SW,215,0.0,0.0,95,0.00,,,0.34,WeatherCatV1.02B3,2013-04-01 02:41:00,
2013-03-31 21:46:00,55.9,54.5,29.98,SW,215,0.0,0.0,95,0.00,,,0.34,WeatherCatV1.02B3,2013-04-01 02:46:00,
2013-03-31 21:51:00,55.9,54.5,29.98,SW,215,0.0,0.0,95,0.00,,,0.34,WeatherCatV1.02B3,2013-04-01 02:51:00,
2013-03-31 21:56:00,55.8,54.4,29.98,SW,215,0.0,0.0,95,0.00,,,0.34,WeatherCatV1.02B3,2013-04-01 02:56:00,
2013-03-31 22:01:00,55.7,54.3,29.98,SW,215,0.0,0.0,95,0.00,,,0.34,WeatherCatV1.02B3,2013-04-01 03:01:00,
2013-03-31 22:06:00,55.7,54.3,29.98,SW,215,0.0,0.0,95,0.00,,,0.34,WeatherCatV1.02B3,2013-04-01 03:06:00,
2013-03-31 22:11:00,55.7,54.3,29.98,SW,215,0.0,0.0,95,0.00,,,0.34,WeatherCatV1.02B3,2013-04-01 03:11:00,
2013-03-31 22:16:00,55.8,54.4,29.99,SW,215,0.0,0.0,95,0.00,,,0.34,WeatherCatV1.02B3,2013-04-01 03:16:00,
2013-03-31 22:21:00,55.9,54.5,29.98,SW,215,0.0,0.0,95,0.00,,,0.34,WeatherCatV1.02B3,2013-04-01 03:21:00,
2013-03-31 22:26:00,56.0,54.6,29.99,SW,215,0.0,0.0,95,0.00,,,0.34,WeatherCatV1.02B3,2013-04-01 03:26:00,
2013-03-31 22:31:00,56.2,54.8,29.99,SW,215,0.0,0.0,95,0.00,,,0.34,WeatherCatV1.02B3,2013-04-01 03:31:00,
2013-03-31 22:36:00,56.2,54.8,29.99,SW,217,0.0,0.0,95,0.00,,,0.34,WeatherCatV1.02B3,2013-04-01 03:36:00,
2013-03-31 22:41:00,56.1,54.7,29.99,SW,217,0.0,0.0,95,0.00,,,0.34,WeatherCatV1.02B3,2013-04-01 03:41:00,
2013-03-31 22:46:00,56.0,54.6,29.99,SW,217,0.0,0.0,95,0.00,,,0.34,WeatherCatV1.02B3,2013-04-01 03:46:00,
2013-03-31 22:51:00,55.9,54.5,29.99,SW,217,0.0,0.0,95,0.00,,,0.34,WeatherCatV1.02B3,2013-04-01 03:51:00,
2013-03-31 22:56:00,55.7,54.3,29.99,SW,217,0.0,0.0,95,0.00,,,0.34,WeatherCatV1.02B3,2013-04-01 03:56:00,
2013-03-31 23:00:00,55.6,54.2,29.99,SW,217,0.0,0.0,95,0.00,,,0.34,WeatherCatV1.02B3,2013-04-01 04:00:00,
2013-03-31 23:01:00,55.5,54.1,29.99,SW,217,0.0,0.0,95,0.00,,,0.34,WeatherCatV1.02B3,2013-04-01 04:01:00,
2013-03-31 23:06:00,55.4,54.0,29.99,SW,217,0.0,0.0,95,0.00,,,0.34,WeatherCatV1.02B3,2013-04-01 04:06:00,
2013-03-31 23:11:00,55.3,53.9,29.99,SW,217,0.0,0.0,95,0.00,,,0.34,WeatherCatV1.02B3,2013-04-01 04:11:00,
2013-03-31 23:16:00,55.1,53.7,30.00,SW,217,0.0,0.0,95,0.00,,,0.34,WeatherCatV1.02B3,2013-04-01 04:16:00,
2013-03-31 23:21:00,55.1,53.7,29.99,SW,217,0.0,0.0,95,0.00,,,0.34,WeatherCatV1.02B3,2013-04-01 04:21:00,
2013-03-31 23:26:00,55.1,53.7,29.99,SW,217,0.0,0.0,95,0.00,,,0.34,WeatherCatV1.02B3,2013-04-01 04:26:00,
2013-03-31 23:31:00,55.2,53.8,30.00,SW,217,0.0,0.0,95,0.00,,,0.34,WeatherCatV1.02B3,2013-04-01 04:31:00,
2013-03-31 23:36:00,55.2,54.1,29.99,SW,217,0.0,0.0,96,0.00,,,0.34,WeatherCatV1.02B3,2013-04-01 04:36:00,
2013-03-31 23:41:00,55.3,54.2,29.99,SW,217,0.0,0.0,96,0.00,,,0.34,WeatherCatV1.02B3,2013-04-01 04:41:00,
2013-03-31 23:46:00,55.5,54.4,29.99,SW,217,0.0,0.0,96,0.00,,,0.34,WeatherCatV1.02B3,2013-04-01 04:46:00,
2013-03-31 23:51:00,55.5,54.4,29.99,SW,217,0.0,0.0,96,0.00,,,0.34,WeatherCatV1.02B3,2013-04-01 04:51:00,
2013-03-31 23:56:00,55.7,54.6,29.99,SW,217,0.0,0.0,96,0.00,,,0.34,WeatherCatV1.02B3,2013-04-01 04:56:00,